Holyrood, Canada
Current Conditions -  °F | °C
As of 10:00 PM on Sunday 23 Nov 2014 (Local Time) from CYYT Reporting Station
Broken Clouds Broken Clouds  
Wind Chill: 25°   Ceiling: 4000
Heat Index: 36°   Visibility: 15mi
Dew Point: 28°   Wind: 20mph
Humidity: 75%   Direction: 280°W
Pressure: 29.91"   Gusts: 31mph
Location:  47.38°N, 53.13°W
Report Text: CYYT 240100Z 28017G27KT 15SM BKN040 02/M02 A2991 RMK SC5 SLP135
Loading
Personal Weather Stations






























Interactive Weather Map New forecast layout! Learn more

10-Day Weather Forecast

Advertisements
Track Severe Weather on mobile